Weather observations for the past three days for
Oscoda, Oscoda-Wurtsmith Airport
Imperial (Metric)
Date Time (edt) Wind (mph) Vis. (mi.) Weather Sky Cond. Temperature (ºF) Relative Humidity Wind Chill (°F) Heat Index (°F) Pressure Precipitation (in)
Air Dwpt 6 hour altimeter (in) sea level (mb) 1 hr 3 hr 6 hr
Max. Min.
04 16:15 E 7 10.00 Overcast OVC023 69.8 60.8 73% 29.98 0.0
04 15:55 E 7 10.00 Overcast OVC023 69.8 60.8 73% 29.99 0.0
04 15:35 E 8 10.00 Overcast OVC021 69.8 62.6 78% 29.98 0.0
04 15:15 E 6 10.00 Overcast OVC021 69.8 62.6 78% 29.98 0.0
04 14:55 E 7 10.00 Overcast OVC021 69.8 62.6 78% 29.98 0.0
04 14:35 E 10 10.00 Overcast OVC021 69.8 62.6 78% 29.98 0.0
04 14:15 E 10 10.00 Overcast OVC021 69.8 62.6 78% 29.98 0.0
04 13:55 E 10 10.00 Overcast OVC021 68 60.8 70.9 67.3 78% 29.99 0.0
04 13:35 E 9 10.00 Overcast OVC021 68 60.8 78% 29.98 0.0
04 13:15 E 8 10.00 Overcast OVC021 68 60.8 78% 29.99 0.0
04 12:55 NE 8 10.00 Overcast OVC023 68 62.6 83% 30 0.0
04 12:35 E 8 10.00 Overcast BKN025 OVC047 69.8 62.6 78% 30 0.0
04 12:15 E 8 10.00 Overcast OVC025 69.8 60.8 73% 30.01 0.0
04 11:55 SE 7 10.00 Overcast OVC027 69.8 59 69% 30 0.0
04 11:35 E 7 10.00 Overcast OVC027 69.8 57.2 64% 30.01 0.0
04 11:15 E 7 10.00 Overcast OVC027 71.6 60.8 69% 30.01 0.0
04 10:55 E 8 10.00 Overcast OVC027 69.8 62.6 78% 30.01 0.0
04 10:35 NE 6 10.00 Overcast BKN027 OVC050 68 62.6 83% 30.02 0.0
04 10:15 NE 7 10.00 Overcast BKN027 BKN043 OVC050 68 62.6 83% 30.01 0.0
04 09:55 E 5 10.00 Overcast BKN035 BKN042 OVC050 68 60.8 78% 30 0.0
04 09:35 E 6 10.00 Overcast OVC033 69.8 60.8 73% 30.01 0.0
04 09:15 E 6 10.00 Overcast OVC031 69.8 60.8 73% 30 0.0
04 08:55 N 3 10.00 Overcast OVC029 68 64.4 88% 30 0.0
04 08:35 NW 2 10.00 Overcast OVC027 68 64.4 88% 30 0.0
04 08:15 SE 2 10.00 Overcast OVC027 68 62.6 83% 30 0.0
04 07:55 NE 5 10.00 Overcast OVC027 68 62.6 68 66.4 83% 29.99 0.0
04 07:35 NE 3 10.00 Overcast OVC027 68 62.6 83% 29.98 0.0
04 07:15 E 3 10.00 Overcast OVC027 68 62.6 83% 29.97 0.0
04 06:55 E 1 10.00 Overcast OVC027 68 64.4 88% 29.97 0.0
04 06:35 N 2 10.00 Overcast OVC027 66.2 64.4 94% 29.97 0.0
04 06:15 NW 2 10.00 Overcast OVC027 66.2 64.4 94% 29.97 0.0
04 05:55 NW 2 10.00 Overcast OVC027 66.2 64.4 94% 29.97 0.0
04 05:35 NW 2 10.00 Overcast OVC029 66.2 64.4 94% 29.97 0.0
04 05:15 SW 1 10.00 Overcast OVC029 66.2 64.4 94% 29.97 0.0
04 04:55 NE 1 10.00 Overcast OVC029 68 64.4 88% 29.97 0.0
04 04:35 NE 1 10.00 Overcast OVC031 66.2 64.4 94% 29.97 0.0
04 04:15 W 2 10.00 Overcast OVC033 68 64.4 88% 29.97 0.0
04 03:55 N 2 10.00 Overcast OVC033 66.2 64.4 94% 29.97 0.0
04 03:15 N 2 10.00 Overcast OVC031 66.2 64.4 94% 29.98 0.0
04 02:55 E 1 10.00 Overcast BKN031 BKN037 OVC050 68 64.4 88% 29.98 0.0
04 02:35 SW 1 10.00 Overcast FEW037 BKN045 OVC050 68 64.4 88% 29.98 0.0
04 02:15 W 2 10.00 Overcast SCT031 SCT038 OVC045 68 64.4 88% 29.99 0.0
04 01:55 W 3 10.00 Overcast OVC031 68 64.4 68.2 66.9 88% 29.99 0.0
04 01:35 W 3 10.00 Overcast OVC031 68 64.4 88% 29.99 0.0
04 01:15 N 1 10.00 Overcast OVC033 68 64.4 88% 29.99 0.0
04 00:55 NW 2 10.00 Overcast OVC033 68 66.2 94% 30 0.0
04 00:35 W 2 10.00 Overcast OVC033 68 66.2 94% 29.99 0.0
04 00:15 W 2 10.00 Overcast BKN035 OVC042 68 64.4 88% 30 0.0
03 23:55 N 1 10.00 Overcast BKN031 OVC039 68 64.4 88% 29.99 0.0
03 23:35 NW 2 0.00 Mostly Cloudy BKN031 BKN037 0 0 0% 29.99 0.0
03 23:15 SW 3 0.00 Overcast OVC035 0 0 0% 29.99 0.0
03 22:55 N 1 10.00 Overcast OVC034 68 66.2 94% 29.98 0.0
03 22:35 W 3 10.00 Overcast OVC034 68 66.2 94% 29.99 0.0
03 22:15 NW 2 10.00 Overcast OVC032 68 66.2 94% 29.99 0.0
03 21:55 N 1 10.00 Overcast OVC030 68 64.4 88% 29.99 0.0
03 21:35 NE 1 10.00 Overcast OVC028 68 64.4 88% 29.99 0.0
03 21:15 W 2 10.00 Overcast OVC028 68 66.2 94% 29.98 0.0
03 20:55 W 2 10.00 Overcast OVC030 68 64.4 88% 29.97 0.0
03 20:35 S 2 10.00 Overcast OVC030 68 64.4 88% 29.96 0.0
03 20:15 S 2 10.00 Mostly Cloudy BKN034 BKN100 68 64.4 88% 29.96 0.0
03 19:55 SW 1 10.00 A Few Clouds FEW034 FEW100 68 64.4 71.1 66.7 88% 29.96 0.0
03 19:35 SW 2 10.00 Mostly Cloudy BKN024 68 64.4 88% 29.96 0.0
03 19:15 S 3 10.00 Mostly Cloudy BKN024 69.8 62.6 78% 29.95 0.0
03 18:55 S 2 10.00 A Few Clouds FEW026 69.8 62.6 78% 29.94 0.0
03 18:35 S 3 10.00 Partly Cloudy SCT026 SCT090 69.8 62.6 78% 29.95 0.0
03 18:15 S 5 10.00 Fair CLR 69.8 62.6 78% 29.94 0.0
03 17:55 E 8 10.00 Fair CLR 69.8 64.4 83% 29.92 0.0
03 17:35 E 7 10.00 Fair CLR 69.8 66.2 88% 29.91 0.0
03 17:15 E 8 10.00 Fair CLR 68 64.4 88% 29.91 0.0
03 16:55 NE 7 10.00 Fair CLR 68 66.2 94% 29.92 0.0
03 16:35 E 8 10.00 Fair CLR 68 64.4 88% 29.93 0.0
03 16:15 Vrbl 2 10.00 Partly Cloudy FEW050 SCT080 68 64.4 88% 29.96 0.0
03 15:55 SW 3 10.00 Light Rain BKN050 BKN060 OVC080 66.2 64.4 94% 29.98 0.0 0.08
03 15:35 SW 7 8.00 Heavy Rain BKN028 BKN035 OVC050 68 64.4 88% 30.01 0.0
03 15:15 SW 6 10.00 Light Rain SCT026 OVC050 68 64.4 88% 30.01 0.0
03 14:35 Vrbl 2 10.00 Partly Cloudy FEW070 SCT085 68 62.6 83% 29.99 0.0
03 14:15 E 7 10.00 Fair CLR 68 62.6 83% 29.98 0.0
03 13:55 E 9 10.00 Mostly Cloudy BKN070 BKN100 68 62.6 73.6 62.2 83% 29.97 0.0
03 13:35 E 10 10.00 Mostly Cloudy FEW050 BKN080 69.8 62.6 78% 29.97 0.0
03 13:15 E 9 10.00 Fair CLR 69.8 62.6 78% 29.97 0.0
03 12:55 E 10 10.00 A Few Clouds FEW080 FEW090 71.6 62.6 73% 29.96 0.0
03 12:35 E 8 10.00 Mostly Cloudy SCT070 BKN090 71.6 62.6 73% 29.98 0.0
03 12:15 E 9 10.00 A Few Clouds FEW090 73.4 62.6 69% 29.97 0.0
03 11:55 E 9 10.00 Fair CLR 73.4 62.6 69% 29.96 0.0
03 11:35 E 8 10.00 Fair CLR 73.4 62.6 69% 29.96 0.0
03 11:15 E 7 10.00 Fair CLR 73.4 62.6 69% 29.96 0.0
03 10:55 E 8 10.00 Fair CLR 73.4 62.6 69% 29.96 0.0
03 10:35 NE 3 10.00 Fair CLR 71.6 62.6 73% 29.96 0.0
03 10:15 N 5 10.00 Fair CLR 71.6 62.6 73% 29.96 0.0
03 09:55 N 5 10.00 Fair CLR 69.8 62.6 78% 29.96 0.0
03 09:35 NE 6 10.00 Fair CLR 68 62.6 83% 29.96 0.0
03 09:15 N 8 10.00 Fair CLR 68 62.6 83% 29.96 0.0
03 08:55 N 7 10.00 Fair CLR 68 64.4 88% 29.96 0.0
03 08:35 N 1 10.00 Fair CLR 66.2 62.6 88% 29.96 0.0
03 08:15 Vrbl 1 10.00 Fair CLR 64.4 60.8 88% 29.96 0.0
03 07:55 W 3 10.00 Fair CLR 62.6 60.8 64.4 59.5 94% 29.96 0.0
03 07:35 SW 5 10.00 Fair CLR 60.8 60.8 100% 29.96 0.0
03 07:15 SW 3 10.00 Fair CLR 59 59 100% 29.96 0.0
03 06:55 W 2 8.00 A Few Clouds FEW100 60.8 60.8 100% 29.95 0.0
03 06:35 W 2 7.00 Fog/Mist CLR 60.8 59 94% 29.95 0.0
03 06:15 NW 2 9.00 Partly Cloudy SCT100 60.8 60.8 100% 29.95 0.0
03 05:55 N 2 10.00 Partly Cloudy SCT110 60.8 60.8 100% 29.95 0.0
03 05:35 N 2 9.00 Mostly Cloudy BKN110 60.8 60.8 100% 29.95 0.0
03 05:15 NW 3 8.00 Fair CLR 60.8 60.8 100% 29.95 0.0
03 04:55 NW 2 8.00 Fair CLR 60.8 60.8 100% 29.94 0.0
03 04:35 NW 3 7.00 Fair CLR 62.6 60.8 94% 29.94 0.0
03 04:15 NW 2 2.50 Fog/Mist CLR 62.6 60.8 94% 29.94 0.0
03 03:55 NW 2 7.00 Fog/Mist CLR 62.6 60.8 94% 29.94 0.0
03 03:35 NW 2 6.00 Fog/Mist FEW070 62.6 60.8 94% 29.94 0.0
03 03:15 NW 5 6.00 Fog/Mist FEW070 62.6 62.6 100% 29.94 0.0
03 02:55 N 3 7.00 Fog/Mist FEW070 62.6 62.6 100% 29.94 0.0
03 02:35 NW 5 6.00 Fog/Mist SCT002 BKN070 62.6 62.6 100% 29.94 0.0
03 02:15 NW 2 10.00 Overcast OVC002 64.4 62.6 94% 29.94 0.0
03 01:55 NW 1 10.00 Overcast OVC002 64.4 62.6 73.8 63.3 94% 29.94 0.0
03 01:35 W 1 5.00 Fog/Mist BKN002 64.4 62.6 94% 29.93 0.0
03 01:15 SW 2 3.00 Fog/Mist CLR 64.4 64.4 100% 29.92 0.0
03 00:55 W 2 9.00 Fair CLR 64.4 64.4 100% 29.92 0.0
03 00:35 W 2 6.00 Fog/Mist CLR 66.2 66.2 100% 29.91 0.0
03 00:15 NW 2 6.00 Fog/Mist CLR 66.2 64.4 94% 29.9 0.0
02 23:55 N 2 8.00 Fair CLR 66.2 66.2 100% 29.9 0.0
02 23:35 N 5 8.00 Fair CLR 66.2 66.2 100% 29.9 0.0
02 23:15 NE 5 10.00 Fair CLR 68 68 100% 29.91 0.0
02 22:55 NE 5 10.00 A Few Clouds FEW007 69.8 68 94% 29.91 0.0
02 22:35 NE 6 9.00 Fair CLR 69.8 68 94% 29.91 0.0
02 22:15 SE 3 10.00 Fair CLR 71.6 68 88% 29.91 0.0
02 21:55 E 5 5.00 Fog/Mist CLR 69.8 68 94% 29.91 0.0
02 21:35 E 3 7.00 Partly Cloudy SCT001 71.6 69.8 94% 29.9 0.0
02 21:15 E 3 2.00 Fog/Mist OVC001 69.8 69.8 100% 29.9 0.0
02 20:55 E 7 10.00 Fair CLR 71.6 69.8 94% 29.89 0.0
02 20:35 E 6 10.00 Partly Cloudy FEW004 SCT007 71.6 68 88% 29.89 0.0
02 20:15 E 5 8.00 Partly Cloudy SCT004 71.6 69.8 94% 29.9 0.0
02 19:55 NE 5 8.00 Fair CLR 71.6 69.8 85.3 72.1 94% 29.9 0.0
02 19:35 NE 7 9.00 Fair CLR 73.4 69.8 89% 29.89 0.0
02 19:15 E 9 10.00 Fair CLR 73.4 69.8 89% 29.89 0.0
02 18:55 E 8 10.00 A Few Clouds FEW044 FEW050 73.4 69.8 89% 29.89 0.0
02 18:35 E 9 10.00 Partly Cloudy FEW044 SCT050 75.2 69.8 83% 75 29.89 0.0
02 18:15 NE 10 10.00 Partly Cloudy SCT046 77 68 74% 79 29.88 0.0
02 17:55 NE 9 10.00 Partly Cloudy SCT046 SCT050 77 68 74% 79 29.88 0.0
02 17:35 E 12 10.00 Fair CLR 77 66.2 69% 79 29.88 0.0
02 17:15 E 10 10.00 Fair CLR 80.6 66.2 62% 83 29.88 0.0
02 16:55 E 5 10.00 Fair CLR 80.6 66.2 62% 83 29.87 0.0
02 16:35 NE 8 10.00 Fair CLR 80.6 66.2 62% 83 29.87 0.0
02 16:15 Vrbl 1 10.00 Fair CLR 78.8 68 70% 81 29.88 0.0
02 15:55 E 6 10.00 Fair CLR 80.6 68 66% 83 29.87 0.0
02 15:35 E 8 10.00 Fair CLR 78.8 64.4 61% 81 29.89 0.0
02 15:15 SE 6 10.00 Partly Cloudy SCT055 SCT070 SCT095 77 64.4 65% 79 29.92 0.0
02 14:55 S 7 10.00 Light Rain SCT030 SCT038 BKN050 77 66.2 69% 79 29.93 0.0
02 14:35 S 7 10.00 Light Rain SCT046 SCT065 BKN085 78.8 66.2 65% 81 29.92 0.0
02 14:15 E 9 10.00 Partly Cloudy SCT120 80.6 64.4 58% 82 29.91 0.0
02 13:55 N 10 10.00 A Few Clouds FEW120 84.2 64.4 84.7 73.6 51% 86 29.91 0.0
02 13:35 Vrbl 5 10.00 Partly Cloudy SCT110 84.2 64.4 51% 86 29.92 0.0
02 13:15 S 5 10.00 A Few Clouds FEW120 84.2 64.4 51% 86 29.91 0.0
02 12:55 Vrbl 6 10.00 Partly Cloudy SCT120 82.4 62.6 51% 83 29.91 0.0
02 12:35 Vrbl 5 10.00 Mostly Cloudy BKN110 82.4 62.6 51% 83 29.92 0.0
02 12:15 Vrbl 3 10.00 Partly Cloudy SCT100 82.4 64.4 55% 84 29.91 0.0
02 11:55 Vrbl 3 10.00 Overcast BKN090 OVC110 80.6 62.6 54% 82 29.91 0.0
02 11:35 W 5 10.00 Overcast OVC090 80.6 66.2 62% 83 29.92 0.0
02 11:15 NW 6 10.00 Overcast OVC100 78.8 66.2 65% 81 29.93 0.0
02 10:55 NW 9 10.00 Partly Cloudy SCT110 78.8 68 70% 81 29.93 0.0
02 10:35 W 9 10.00 A Few Clouds FEW120 80.6 69.8 70% 84 29.92 0.0
02 10:15 Vrbl 2 10.00 Fair CLR 78.8 71.6 79% 82 29.9 0.0
02 09:55 NW 8 10.00 Mostly Cloudy FEW070 SCT090 BKN110 77 73.4 89% 78 29.91 0.0
02 09:35 NW 9 10.00 Overcast FEW009 BKN090 OVC110 77 73.4 89% 78 29.94 0.0
02 09:15 W 10 10.00 Mostly Cloudy BKN110 77 73.4 89% 78 29.92 0.0
02 08:55 SW 7 9.00 A Few Clouds FEW110 75.2 73.4 94% 74 29.91 0.0
02 08:35 W 8 6.00 Fog/Mist CLR 75.2 73.4 94% 74 29.9 0.0
02 08:15 SW 8 6.00 Fog/Mist CLR 75.2 73.4 94% 74 29.9 0.0
02 07:55 SW 7 6.00 Fog/Mist FEW110 73.4 73.4 73.6 69.1 100% 29.89 0.0
02 07:35 SW 7 4.00 Fog/Mist SCT110 73.4 71.6 94% 29.89 0.0
02 07:15 SW 5 4.00 Fog/Mist CLR 71.6 71.6 100% 29.89 0.0
02 06:55 SW 8 5.00 Fog/Mist CLR 73.4 71.6 94% 29.89 0.0
02 06:35 SW 7 7.00 Fog/Mist CLR 73.4 71.6 94% 29.89 0.0
02 06:15 SW 5 7.00 Fair CLR 73.4 71.6 94% 29.88 0.0
02 05:55 SW 8 7.00 Fair CLR 73.4 71.6 94% 29.89 0.0
02 05:35 SW 7 8.00 Fair CLR 73.4 71.6 94% 29.89 0.0
02 05:15 SW 6 8.00 Fair CLR 73.4 71.6 94% 29.88 0.0
02 04:55 SW 5 9.00 Fair CLR 73.4 71.6 94% 29.88 0.0
02 04:35 SW 5 9.00 Fair CLR 73.4 71.6 94% 29.88 0.0
02 04:15 SW 5 7.00 Fair CLR 71.6 69.8 94% 29.88 0.0
02 03:55 SW 6 5.00 Fog/Mist CLR 71.6 69.8 94% 29.88 0.0
02 03:35 SW 7 7.00 Fog/Mist CLR 71.6 69.8 94% 29.88 0.0
02 03:15 SW 7 7.00 Fog/Mist CLR 71.6 69.8 94% 29.88 0.0
02 02:55 SW 5 7.00 Fog/Mist CLR 69.8 69.8 100% 29.88 0.0
02 02:35 SW 5 7.00 Fog/Mist CLR 69.8 69.8 100% 29.88 0.0
02 02:15 SW 5 6.00 Fog/Mist CLR 69.8 68 94% 29.89 0.0
02 01:55 SW 3 7.00 Fair CLR 69.8 68 71.1 67.8 94% 29.9 0.0
02 01:35 S 2 7.00 Fog/Mist CLR 69.8 68 94% 29.89 0.0
02 01:15 W 3 5.00 Fog/Mist CLR 68 68 100% 29.9 0.0
02 00:55 W 3 4.00 Fog/Mist CLR 68 68 100% 29.91 0.0
02 00:35 W 5 3.00 Fog/Mist CLR 68 68 100% 29.9 0.0
02 00:15 NW 6 1.50 Fog/Mist SCT002 68 68 100% 29.9 0.0
01 23:55 NW 5 5.00 Fog/Mist FEW004 68 68 100% 29.89 0.0
01 23:35 NW 5 5.00 Fog/Mist FEW004 68 68 100% 29.9 0.0
01 23:15 N 2 6.00 Fog/Mist CLR 69.8 68 94% 29.89 0.0
01 22:55 SW 2 6.00 Fog/Mist CLR 69.8 69.8 100% 29.89 0.0
01 22:35 S 2 8.00 Fair CLR 71.6 69.8 94% 29.9 0.0
01 22:15 S 3 7.00 Fog/Mist CLR 71.6 69.8 94% 29.9 0.0
01 21:55 SE 5 8.00 Partly Cloudy FEW003 SCT045 71.6 69.8 94% 29.91 0.0
01 21:35 E 3 8.00 Mostly Cloudy BKN003 BKN045 69.8 68 94% 29.91 0.0
01 21:15 E 3 7.00 Overcast OVC003 69.8 68 94% 29.91 0.0
01 20:55 SE 6 8.00 Overcast OVC003 69.8 68 94% 29.9 0.0
01 20:35 SE 6 10.00 Mostly Cloudy BKN003 69.8 68 94% 29.9 0.0
01 20:15 SE 6 10.00 Mostly Cloudy BKN003 69.8 68 94% 29.91 0.0
01 19:55 E 5 10.00 Overcast OVC003 69.8 68 88.7 69.8 94% 29.91 0.0
01 19:35 SE 6 8.00 Overcast OVC003 69.8 68 94% 29.91 0.0
01 19:15 E 7 6.00 Fog/Mist OVC003 69.8 68 94% 29.92 0.0
01 18:55 E 8 10.00 Overcast OVC005 71.6 69.8 94% 29.92 0.0
01 18:35 E 8 10.00 Mostly Cloudy BKN005 BKN040 73.4 69.8 89% 29.92 0.0
01 18:15 E 13 10.00 A Few Clouds FEW005 FEW040 73.4 69.8 89% 29.92 0.0
01 17:55 E 14 10.00 Fair CLR 75.2 69.8 83% 75 29.92 0.0
01 17:35 E 13 10.00 A Few Clouds FEW029 77 69.8 79% 79 29.91 0.0
01 17:15 E 14 10.00 Partly Cloudy SCT029 SCT034 80.6 71.6 74% 85 29.91 0.0
01 16:55 E 15 10.00 A Few Clouds FEW029 FEW035 FEW045 82.4 71.6 70% 87 29.9 0.0
01 16:48 NE 9 0.00 A Few Clouds FEW029 FEW035 FEW045 86 73.4 66% 93 29.9 0.0
01 16:47 Vrbl 6 0.00 NULL NULL 0 0 0% 29.91 0.0
Date Time (edt) Wind (mph) Vis. (mi.) Weather Sky Cond. Air Dwpt Max. Min. Relative Humidity Wind Chill (°F) Heat Index (°F) altimeter (in) sea level (mb) 1 hr 3 hr 6 hr
6 hour
Temperature (ºF) Pressure Precipitation (in)